Hlavní strana
METAR-TAF:

METAR-TAF

Letiště :

Pärnu, Estonsko

zeměpisná šířka: 58-25-09N, zeměpisná délka: 024-28-22E, výška: 14 m

Aktuální stav počasí

Zpráva byla vytvořena před 1 hodinou a 10 minutami, v 11:50 UTC
Jihojihozápadní vítr 13 kt
Teplota 2°C
Vlhkost vzduchu 80%
Tlak 1001 hPa
Viditelnost 10 km a více
Oblačno až skoro zataženo ve výšce 2200 ft

METAR: EEPU 291150Z 21013KT 9999 BKN022 02/M01 Q1001

Čas: 15:00 (13:00 UTC)


TAF: chybějící

Stav a předpovědi počasí z více než 4 000 letišť (zprávy METAR a TAF).

Červené a žluté tečky na mapě představují dostupné meteorologické stanice.

Když kurzor umístíte na tečku, zobrazí se název stanice.

Pak kliknutím zobrazíte stav a předpověď počasí.

Chcete-li změnit mapu, kliknutím na zelené tlačítko se znaménkem +mapu přiblížíte, kliknutím na zelené tlačítko se znaménkem – mapu oddálíte a kliknutím na zelené šipky přejdete na sousední mapy.


METAR-TAF: